sensor_id;sensor_type;location;lat;lon;timestamp;pressure;altitude;pressure_sealevel;temperature;humidity
51460;BME280;37534;39.772;2.718;2022-10-31T00:00:51;101700.97;;;16.82;100.00
51460;BME280;37534;39.772;2.718;2022-10-31T00:03:17;101703.81;;;16.76;100.00
51460;BME280;37534;39.772;2.718;2022-10-31T00:05:45;101711.53;;;16.79;100.00
51460;BME280;37534;39.772;2.718;2022-10-31T00:08:11;101711.88;;;16.70;100.00
51460;BME280;37534;39.772;2.718;2022-10-31T00:10:38;101706.53;;;16.73;100.00
51460;BME280;37534;39.772;2.718;2022-10-31T00:13:04;101721.03;;;16.80;100.00
51460;BME280;37534;39.772;2.718;2022-10-31T00:15:29;101728.44;;;16.92;100.00
51460;BME280;37534;39.772;2.718;2022-10-31T00:17:55;101725.28;;;16.84;100.00
51460;BME280;37534;39.772;2.718;2022-10-31T00:20:20;101720.25;;;16.78;100.00
51460;BME280;37534;39.772;2.718;2022-10-31T00:22:46;101726.81;;;16.65;100.00
51460;BME280;37534;39.772;2.718;2022-10-31T00:25:11;101722.09;;;16.51;100.00
51460;BME280;37534;39.772;2.718;2022-10-31T00:27:37;101725.25;;;16.59;100.00
51460;BME280;37534;39.772;2.718;2022-10-31T00:30:03;101716.22;;;16.69;100.00
51460;BME280;37534;39.772;2.718;2022-10-31T00:32:29;101721.16;;;16.77;100.00
51460;BME280;37534;39.772;2.718;2022-10-31T00:34:55;101735.25;;;16.71;100.00
51460;BME280;37534;39.772;2.718;2022-10-31T00:37:21;101732.97;;;16.62;100.00
51460;BME280;37534;39.772;2.718;2022-10-31T00:39:46;101731.19;;;16.63;100.00
51460;BME280;37534;39.772;2.718;2022-10-31T00:42:14;101729.06;;;16.50;100.00
51460;BME280;37534;39.772;2.718;2022-10-31T00:44:39;101725.25;;;16.34;100.00
51460;BME280;37534;39.772;2.718;2022-10-31T00:47:05;101740.00;;;16.35;100.00
51460;BME280;37534;39.772;2.718;2022-10-31T00:49:30;101726.38;;;16.27;100.00
51460;BME280;37534;39.772;2.718;2022-10-31T00:51:56;101730.59;;;16.31;100.00
51460;BME280;37534;39.772;2.718;2022-10-31T00:54:22;101735.72;;;16.32;100.00
51460;BME280;37534;39.772;2.718;2022-10-31T00:56:47;101740.03;;;16.33;100.00
51460;BME280;37534;39.772;2.718;2022-10-31T00:59:13;101738.28;;;16.34;100.00
51460;BME280;37534;39.772;2.718;2022-10-31T01:01:38;101739.19;;;16.33;100.00
51460;BME280;37534;39.772;2.718;2022-10-31T01:04:04;101734.19;;;16.27;100.00
51460;BME280;37534;39.772;2.718;2022-10-31T01:06:29;101735.94;;;16.26;100.00
51460;BME280;37534;39.772;2.718;2022-10-31T01:08:55;101739.59;;;16.21;100.00
51460;BME280;37534;39.772;2.718;2022-10-31T01:11:22;101732.03;;;16.13;100.00
51460;BME280;37534;39.772;2.718;2022-10-31T01:13:52;101733.88;;;16.09;100.00
51460;BME280;37534;39.772;2.718;2022-10-31T01:16:20;101736.38;;;16.12;100.00
51460;BME280;37534;39.772;2.718;2022-10-31T01:18:46;101721.97;;;16.02;100.00
51460;BME280;37534;39.772;2.718;2022-10-31T01:21:14;101731.66;;;15.97;100.00
51460;BME280;37534;39.772;2.718;2022-10-31T01:23:41;101731.97;;;16.14;100.00
51460;BME280;37534;39.772;2.718;2022-10-31T01:26:13;101728.97;;;16.27;100.00
51460;BME280;37534;39.772;2.718;2022-10-31T01:28:44;101730.59;;;16.31;100.00
51460;BME280;37534;39.772;2.718;2022-10-31T01:31:10;101734.50;;;16.18;100.00
51460;BME280;37534;39.772;2.718;2022-10-31T01:33:36;101733.19;;;16.04;100.00
51460;BME280;37534;39.772;2.718;2022-10-31T01:38:38;101730.06;;;15.93;100.00
51460;BME280;37534;39.772;2.718;2022-10-31T01:41:04;101723.19;;;15.92;100.00
51460;BME280;37534;39.772;2.718;2022-10-31T01:43:46;101730.16;;;15.90;100.00
51460;BME280;37534;39.772;2.718;2022-10-31T01:46:13;101731.22;;;15.84;100.00
51460;BME280;37534;39.772;2.718;2022-10-31T01:48:40;101728.78;;;15.80;100.00
51460;BME280;37534;39.772;2.718;2022-10-31T01:51:07;101724.69;;;15.71;100.00
51460;BME280;37534;39.772;2.718;2022-10-31T01:53:34;101726.69;;;15.91;100.00
51460;BME280;37534;39.772;2.718;2022-10-31T01:56:01;101735.94;;;16.00;100.00
51460;BME280;37534;39.772;2.718;2022-10-31T01:58:28;101724.78;;;15.96;100.00
51460;BME280;37534;39.772;2.718;2022-10-31T02:00:59;101724.56;;;16.02;100.00
51460;BME280;37534;39.772;2.718;2022-10-31T02:03:25;101725.94;;;15.87;100.00
51460;BME280;37534;39.772;2.718;2022-10-31T02:05:54;101713.41;;;15.70;100.00
51460;BME280;37534;39.772;2.718;2022-10-31T02:08:27;101710.00;;;15.68;100.00
51460;BME280;37534;39.772;2.718;2022-10-31T02:10:54;101696.41;;;15.60;100.00
51460;BME280;37534;39.772;2.718;2022-10-31T02:13:20;101710.44;;;15.83;100.00
51460;BME280;37534;39.772;2.718;2022-10-31T02:15:50;101707.84;;;15.83;100.00
51460;BME280;37534;39.772;2.718;2022-10-31T02:18:17;101707.75;;;15.86;100.00
51460;BME280;37534;39.772;2.718;2022-10-31T02:23:56;101697.72;;;15.73;100.00
51460;BME280;37534;39.772;2.718;2022-10-31T02:32:09;101669.91;;;15.47;100.00
51460;BME280;37534;39.772;2.718;2022-10-31T02:34:49;101678.63;;;15.46;100.00
51460;BME280;37534;39.772;2.718;2022-10-31T02:37:36;101685.50;;;15.47;100.00
51460;BME280;37534;39.772;2.718;2022-10-31T02:48:18;101697.22;;;15.62;100.00
51460;BME280;37534;39.772;2.718;2022-10-31T02:50:50;101679.78;;;15.64;100.00
51460;BME280;37534;39.772;2.718;2022-10-31T02:53:17;101686.94;;;15.57;100.00
51460;BME280;37534;39.772;2.718;2022-10-31T02:56:08;101696.91;;;15.71;100.00
51460;BME280;37534;39.772;2.718;2022-10-31T02:58:39;101684.69;;;15.75;100.00
51460;BME280;37534;39.772;2.718;2022-10-31T03:04:28;101699.06;;;15.58;100.00
51460;BME280;37534;39.772;2.718;2022-10-31T03:10:04;101691.75;;;15.42;100.00
51460;BME280;37534;39.772;2.718;2022-10-31T03:12:38;101684.13;;;15.37;100.00
51460;BME280;37534;39.772;2.718;2022-10-31T03:15:30;101679.84;;;15.34;100.00
51460;BME280;37534;39.772;2.718;2022-10-31T03:18:01;101679.00;;;15.34;100.00
51460;BME280;37534;39.772;2.718;2022-10-31T03:21:00;101685.19;;;15.30;100.00
51460;BME280;37534;39.772;2.718;2022-10-31T03:23:28;101689.41;;;15.34;100.00
51460;BME280;37534;39.772;2.718;2022-10-31T03:25:56;101687.94;;;15.25;100.00
51460;BME280;37534;39.772;2.718;2022-10-31T03:28:31;101699.13;;;15.27;100.00
51460;BME280;37534;39.772;2.718;2022-10-31T03:30:59;101692.31;;;15.23;100.00
51460;BME280;37534;39.772;2.718;2022-10-31T03:33:29;101712.09;;;15.29;100.00
51460;BME280;37534;39.772;2.718;2022-10-31T03:36:00;101713.97;;;15.24;100.00
51460;BME280;37534;39.772;2.718;2022-10-31T03:38:28;101708.72;;;15.25;100.00
51460;BME280;37534;39.772;2.718;2022-10-31T03:40:56;101710.56;;;15.21;100.00
51460;BME280;37534;39.772;2.718;2022-10-31T03:43:28;101720.75;;;15.28;100.00
51460;BME280;37534;39.772;2.718;2022-10-31T03:45:55;101696.84;;;15.16;100.00
51460;BME280;37534;39.772;2.718;2022-10-31T03:48:22;101720.19;;;15.48;100.00
51460;BME280;37534;39.772;2.718;2022-10-31T03:51:06;101714.94;;;15.49;100.00
51460;BME280;37534;39.772;2.718;2022-10-31T03:53:44;101715.53;;;15.29;100.00
51460;BME280;37534;39.772;2.718;2022-10-31T03:56:35;101726.16;;;15.21;100.00
51460;BME280;37534;39.772;2.718;2022-10-31T03:59:17;101712.53;;;15.13;100.00
51460;BME280;37534;39.772;2.718;2022-10-31T04:01:50;101722.91;;;15.13;100.00
51460;BME280;37534;39.772;2.718;2022-10-31T04:04:18;101705.03;;;15.02;100.00
51460;BME280;37534;39.772;2.718;2022-10-31T04:06:45;101708.44;;;15.05;100.00
51460;BME280;37534;39.772;2.718;2022-10-31T04:09:13;101711.00;;;15.06;100.00
51460;BME280;37534;39.772;2.718;2022-10-31T04:11:48;101711.75;;;15.10;100.00
51460;BME280;37534;39.772;2.718;2022-10-31T04:14:14;101710.84;;;15.12;100.00
51460;BME280;37534;39.772;2.718;2022-10-31T04:16:41;101703.25;;;15.05;100.00
51460;BME280;37534;39.772;2.718;2022-10-31T04:19:08;101701.28;;;15.13;100.00
51460;BME280;37534;39.772;2.718;2022-10-31T04:21:34;101697.59;;;15.20;100.00
51460;BME280;37534;39.772;2.718;2022-10-31T04:23:59;101683.88;;;15.15;100.00
51460;BME280;37534;39.772;2.718;2022-10-31T04:26:25;101691.72;;;15.13;100.00
51460;BME280;37534;39.772;2.718;2022-10-31T04:28:50;101685.16;;;15.01;100.00
51460;BME280;37534;39.772;2.718;2022-10-31T04:31:16;101687.13;;;14.93;100.00
51460;BME280;37534;39.772;2.718;2022-10-31T04:33:41;101684.75;;;14.86;100.00
51460;BME280;37534;39.772;2.718;2022-10-31T04:36:08;101681.47;;;14.79;100.00
51460;BME280;37534;39.772;2.718;2022-10-31T04:38:34;101680.63;;;14.78;100.00
51460;BME280;37534;39.772;2.718;2022-10-31T04:40:59;101679.66;;;14.81;100.00
51460;BME280;37534;39.772;2.718;2022-10-31T04:43:25;101682.66;;;14.98;100.00
51460;BME280;37534;39.772;2.718;2022-10-31T04:45:50;101685.97;;;15.04;100.00
51460;BME280;37534;39.772;2.718;2022-10-31T04:48:16;101682.84;;;14.92;100.00
51460;BME280;37534;39.772;2.718;2022-10-31T04:50:42;101681.38;;;14.82;100.00
51460;BME280;37534;39.772;2.718;2022-10-31T04:53:07;101683.06;;;14.83;100.00
51460;BME280;37534;39.772;2.718;2022-10-31T04:55:35;101686.44;;;14.87;100.00
51460;BME280;37534;39.772;2.718;2022-10-31T04:58:00;101689.16;;;14.83;100.00
51460;BME280;37534;39.772;2.718;2022-10-31T05:00:26;101688.03;;;14.92;100.00
51460;BME280;37534;39.772;2.718;2022-10-31T05:02:54;101691.25;;;15.00;100.00
51460;BME280;37534;39.772;2.718;2022-10-31T05:05:22;101692.16;;;14.99;100.00
51460;BME280;37534;39.772;2.718;2022-10-31T05:07:49;101683.06;;;14.83;100.00
51460;BME280;37534;39.772;2.718;2022-10-31T05:10:18;101695.25;;;14.81;100.00
51460;BME280;37534;39.772;2.718;2022-10-31T05:12:49;101710.22;;;14.73;100.00
51460;BME280;37534;39.772;2.718;2022-10-31T05:15:16;101696.28;;;14.75;100.00
51460;BME280;37534;39.772;2.718;2022-10-31T05:17:43;101709.28;;;14.75;100.00
51460;BME280;37534;39.772;2.718;2022-10-31T05:20:10;101717.66;;;14.85;100.00
51460;BME280;37534;39.772;2.718;2022-10-31T05:22:36;101725.81;;;14.73;100.00
51460;BME280;37534;39.772;2.718;2022-10-31T05:25:01;101718.25;;;14.63;100.00
51460;BME280;37534;39.772;2.718;2022-10-31T05:27:27;101714.84;;;14.61;100.00
51460;BME280;37534;39.772;2.718;2022-10-31T05:29:53;101727.91;;;14.58;100.00
51460;BME280;37534;39.772;2.718;2022-10-31T05:32:18;101737.88;;;14.74;100.00
51460;BME280;37534;39.772;2.718;2022-10-31T05:34:44;101730.16;;;14.71;100.00
51460;BME280;37534;39.772;2.718;2022-10-31T05:37:09;101733.34;;;14.82;100.00
51460;BME280;37534;39.772;2.718;2022-10-31T05:39:35;101723.91;;;14.78;100.00
51460;BME280;37534;39.772;2.718;2022-10-31T05:42:00;101719.97;;;14.64;100.00
51460;BME280;37534;39.772;2.718;2022-10-31T05:44:26;101726.94;;;14.62;100.00
51460;BME280;37534;39.772;2.718;2022-10-31T05:46:52;101712.06;;;14.69;100.00
51460;BME280;37534;39.772;2.718;2022-10-31T05:49:17;101717.25;;;14.69;100.00
51460;BME280;37534;39.772;2.718;2022-10-31T05:51:43;101727.81;;;14.61;100.00
51460;BME280;37534;39.772;2.718;2022-10-31T05:54:08;101725.38;;;14.55;100.00
51460;BME280;37534;39.772;2.718;2022-10-31T05:56:34;101723.72;;;14.51;100.00
51460;BME280;37534;39.772;2.718;2022-10-31T05:58:59;101720.31;;;14.49;100.00
51460;BME280;37534;39.772;2.718;2022-10-31T06:01:25;101728.91;;;14.51;100.00
51460;BME280;37534;39.772;2.718;2022-10-31T06:03:50;101715.22;;;14.46;100.00
51460;BME280;37534;39.772;2.718;2022-10-31T06:06:16;101720.44;;;14.46;100.00
51460;BME280;37534;39.772;2.718;2022-10-31T06:08:41;101717.09;;;14.41;100.00
51460;BME280;37534;39.772;2.718;2022-10-31T06:11:07;101721.28;;;14.47;100.00
51460;BME280;37534;39.772;2.718;2022-10-31T06:13:33;101721.22;;;14.48;100.00
51460;BME280;37534;39.772;2.718;2022-10-31T06:15:58;101721.78;;;14.61;100.00
51460;BME280;37534;39.772;2.718;2022-10-31T06:18:24;101711.03;;;14.75;100.00
51460;BME280;37534;39.772;2.718;2022-10-31T06:20:50;101707.25;;;14.85;100.00
51460;BME280;37534;39.772;2.718;2022-10-31T06:23:15;101705.16;;;14.99;100.00
51460;BME280;37534;39.772;2.718;2022-10-31T06:25:41;101691.44;;;14.94;100.00
51460;BME280;37534;39.772;2.718;2022-10-31T06:28:06;101681.19;;;14.88;100.00
51460;BME280;37534;39.772;2.718;2022-10-31T06:30:32;101684.00;;;14.82;100.00
51460;BME280;37534;39.772;2.718;2022-10-31T06:33:07;101677.81;;;14.86;100.00
51460;BME280;37534;39.772;2.718;2022-10-31T06:35:32;101670.38;;;15.04;100.00
51460;BME280;37534;39.772;2.718;2022-10-31T06:38:00;101683.09;;;15.13;100.00
51460;BME280;37534;39.772;2.718;2022-10-31T06:40:26;101672.59;;;15.16;100.00
51460;BME280;37534;39.772;2.718;2022-10-31T06:42:59;101673.28;;;15.23;100.00
51460;BME280;37534;39.772;2.718;2022-10-31T06:45:25;101679.25;;;15.26;100.00
51460;BME280;37534;39.772;2.718;2022-10-31T06:47:54;101676.53;;;15.29;100.00
51460;BME280;37534;39.772;2.718;2022-10-31T06:50:20;101671.31;;;15.29;100.00
51460;BME280;37534;39.772;2.718;2022-10-31T06:52:53;101679.66;;;15.40;100.00
51460;BME280;37534;39.772;2.718;2022-10-31T06:55:19;101687.91;;;15.55;100.00
51460;BME280;37534;39.772;2.718;2022-10-31T06:57:54;101693.41;;;15.72;100.00
51460;BME280;37534;39.772;2.718;2022-10-31T07:00:20;101709.66;;;15.81;100.00
51460;BME280;37534;39.772;2.718;2022-10-31T07:02:56;101716.56;;;15.82;100.00
51460;BME280;37534;39.772;2.718;2022-10-31T07:05:22;101719.88;;;15.87;100.00
51460;BME280;37534;39.772;2.718;2022-10-31T07:07:55;101728.19;;;15.98;100.00
51460;BME280;37534;39.772;2.718;2022-10-31T07:10:21;101722.31;;;16.18;100.00
51460;BME280;37534;39.772;2.718;2022-10-31T07:12:47;101730.78;;;16.25;100.00
51460;BME280;37534;39.772;2.718;2022-10-31T07:15:13;101722.88;;;16.28;100.00
51460;BME280;37534;39.772;2.718;2022-10-31T07:17:38;101729.47;;;16.38;100.00
51460;BME280;37534;39.772;2.718;2022-10-31T07:20:04;101735.06;;;16.52;100.00
51460;BME280;37534;39.772;2.718;2022-10-31T07:22:34;101731.34;;;16.60;100.00
51460;BME280;37534;39.772;2.718;2022-10-31T07:25:01;101728.59;;;16.63;100.00
51460;BME280;37534;39.772;2.718;2022-10-31T07:27:26;101732.72;;;16.70;100.00
51460;BME280;37534;39.772;2.718;2022-10-31T07:29:52;101744.31;;;16.86;100.00
51460;BME280;37534;39.772;2.718;2022-10-31T07:32:17;101737.41;;;16.85;100.00
51460;BME280;37534;39.772;2.718;2022-10-31T07:34:43;101736.84;;;17.01;100.00
51460;BME280;37534;39.772;2.718;2022-10-31T07:37:08;101733.00;;;17.11;100.00
51460;BME280;37534;39.772;2.718;2022-10-31T07:39:34;101744.84;;;17.20;100.00
51460;BME280;37534;39.772;2.718;2022-10-31T07:41:59;101746.06;;;17.33;100.00
51460;BME280;37534;39.772;2.718;2022-10-31T07:44:25;101760.72;;;17.59;100.00
51460;BME280;37534;39.772;2.718;2022-10-31T07:46:50;101752.38;;;17.73;100.00
51460;BME280;37534;39.772;2.718;2022-10-31T07:49:16;101752.75;;;17.86;100.00
51460;BME280;37534;39.772;2.718;2022-10-31T07:51:41;101760.94;;;17.99;100.00
51460;BME280;37534;39.772;2.718;2022-10-31T07:54:07;101767.44;;;18.11;100.00
51460;BME280;37534;39.772;2.718;2022-10-31T07:56:32;101760.38;;;18.13;100.00
51460;BME280;37534;39.772;2.718;2022-10-31T07:58:58;101753.53;;;18.31;100.00
51460;BME280;37534;39.772;2.718;2022-10-31T08:01:24;101755.38;;;18.49;100.00
51460;BME280;37534;39.772;2.718;2022-10-31T08:03:49;101741.28;;;18.53;100.00
51460;BME280;37534;39.772;2.718;2022-10-31T08:06:15;101747.19;;;19.36;100.00
51460;BME280;37534;39.772;2.718;2022-10-31T08:08:40;101762.84;;;20.64;100.00
51460;BME280;37534;39.772;2.718;2022-10-31T08:11:06;101766.53;;;21.91;100.00
51460;BME280;37534;39.772;2.718;2022-10-31T08:13:31;101751.91;;;22.90;100.00
51460;BME280;37534;39.772;2.718;2022-10-31T08:18:28;101770.91;;;25.71;85.89
51460;BME280;37534;39.772;2.718;2022-10-31T08:20:54;101755.63;;;26.81;79.18
51460;BME280;37534;39.772;2.718;2022-10-31T08:23:20;101778.53;;;27.92;72.49
51460;BME280;37534;39.772;2.718;2022-10-31T08:25:45;101752.94;;;28.75;67.52
51460;BME280;37534;39.772;2.718;2022-10-31T08:28:13;101766.59;;;29.71;62.03
51460;BME280;37534;39.772;2.718;2022-10-31T08:30:39;101761.09;;;30.31;56.88
51460;BME280;37534;39.772;2.718;2022-10-31T08:33:15;101775.91;;;30.54;55.83
51460;BME280;37534;39.772;2.718;2022-10-31T08:35:42;101762.44;;;30.65;52.75
51460;BME280;37534;39.772;2.718;2022-10-31T08:38:09;101755.81;;;31.42;49.05
51460;BME280;37534;39.772;2.718;2022-10-31T08:40:36;101771.13;;;31.94;50.97
51460;BME280;37534;39.772;2.718;2022-10-31T08:43:14;101755.84;;;32.75;48.39
51460;BME280;37534;39.772;2.718;2022-10-31T08:45:41;101768.94;;;33.62;45.60
51460;BME280;37534;39.772;2.718;2022-10-31T08:48:10;101759.72;;;34.05;44.74
51460;BME280;37534;39.772;2.718;2022-10-31T08:50:36;101758.59;;;34.64;41.59
51460;BME280;37534;39.772;2.718;2022-10-31T08:53:10;101753.88;;;34.26;40.63
51460;BME280;37534;39.772;2.718;2022-10-31T08:55:37;101750.50;;;34.80;41.17
51460;BME280;37534;39.772;2.718;2022-10-31T08:58:05;101749.66;;;35.42;40.28
51460;BME280;37534;39.772;2.718;2022-10-31T09:00:32;101755.91;;;36.19;37.98
51460;BME280;37534;39.772;2.718;2022-10-31T09:03:03;101760.25;;;36.65;36.63
51460;BME280;37534;39.772;2.718;2022-10-31T09:05:30;101757.56;;;36.05;36.62
51460;BME280;37534;39.772;2.718;2022-10-31T09:07:56;101765.97;;;36.02;37.64
51460;BME280;37534;39.772;2.718;2022-10-31T09:10:23;101764.06;;;36.70;36.15
51460;BME280;37534;39.772;2.718;2022-10-31T09:12:57;101751.84;;;37.19;34.81
51460;BME280;37534;39.772;2.718;2022-10-31T09:15:25;101749.78;;;36.85;34.77
51460;BME280;37534;39.772;2.718;2022-10-31T09:17:51;101743.22;;;36.28;35.02
51460;BME280;37534;39.772;2.718;2022-10-31T09:20:16;101741.91;;;36.83;35.37
51460;BME280;37534;39.772;2.718;2022-10-31T09:22:42;101742.75;;;37.05;34.15
51460;BME280;37534;39.772;2.718;2022-10-31T09:25:08;101748.78;;;37.94;32.12
51460;BME280;37534;39.772;2.718;2022-10-31T09:27:34;101748.81;;;38.00;33.16
51460;BME280;37534;39.772;2.718;2022-10-31T09:30:00;101759.78;;;37.71;32.80
51460;BME280;37534;39.772;2.718;2022-10-31T09:32:25;101758.41;;;38.10;33.03
51460;BME280;37534;39.772;2.718;2022-10-31T09:34:51;101752.78;;;37.76;33.41
51460;BME280;37534;39.772;2.718;2022-10-31T09:37:16;101745.31;;;38.35;32.41
51460;BME280;37534;39.772;2.718;2022-10-31T09:39:42;101745.78;;;37.60;33.00
51460;BME280;37534;39.772;2.718;2022-10-31T09:42:29;101760.38;;;38.22;32.94
51460;BME280;37534;39.772;2.718;2022-10-31T09:45:11;101758.63;;;38.91;32.00
51460;BME280;37534;39.772;2.718;2022-10-31T09:48:05;101759.41;;;39.53;30.77
51460;BME280;37534;39.772;2.718;2022-10-31T09:50:52;101751.47;;;40.12;29.60
51460;BME280;37534;39.772;2.718;2022-10-31T09:53:26;101752.53;;;40.70;28.80
51460;BME280;37534;39.772;2.718;2022-10-31T09:55:53;101756.16;;;40.95;28.18
51460;BME280;37534;39.772;2.718;2022-10-31T09:58:23;101751.53;;;41.02;28.16
51460;BME280;37534;39.772;2.718;2022-10-31T10:00:50;101753.38;;;41.40;28.01
51460;BME280;37534;39.772;2.718;2022-10-31T10:06:15;101760.44;;;40.64;28.90
51460;BME280;37534;39.772;2.718;2022-10-31T10:08:42;101768.09;;;40.81;28.12
51460;BME280;37534;39.772;2.718;2022-10-31T10:24:15;101744.13;;;41.23;27.32
51460;BME280;37534;39.772;2.718;2022-10-31T10:26:54;101750.44;;;40.72;28.31
51460;BME280;37534;39.772;2.718;2022-10-31T10:29:33;101744.88;;;40.98;28.49
51460;BME280;37534;39.772;2.718;2022-10-31T10:32:09;101749.28;;;41.82;27.93
51460;BME280;37534;39.772;2.718;2022-10-31T10:34:59;101736.94;;;41.60;28.01
51460;BME280;37534;39.772;2.718;2022-10-31T10:37:37;101746.50;;;42.07;27.30
51460;BME280;37534;39.772;2.718;2022-10-31T10:40:19;101744.34;;;42.15;26.60
51460;BME280;37534;39.772;2.718;2022-10-31T10:45:48;101743.28;;;41.29;26.97
51460;BME280;37534;39.772;2.718;2022-10-31T10:48:42;101741.00;;;41.51;27.62
51460;BME280;37534;39.772;2.718;2022-10-31T10:51:27;101738.31;;;41.95;26.87
51460;BME280;37534;39.772;2.718;2022-10-31T10:59:15;101722.94;;;42.44;26.32
51460;BME280;37534;39.772;2.718;2022-10-31T11:01:41;101712.19;;;42.19;26.80
51460;BME280;37534;39.772;2.718;2022-10-31T11:04:29;101719.28;;;42.57;26.22
51460;BME280;37534;39.772;2.718;2022-10-31T11:07:13;101705.38;;;42.47;26.66
51460;BME280;37534;39.772;2.718;2022-10-31T11:09:39;101710.56;;;42.67;26.66
51460;BME280;37534;39.772;2.718;2022-10-31T11:12:24;101722.19;;;42.37;26.30
51460;BME280;37534;39.772;2.718;2022-10-31T11:14:58;101705.44;;;42.59;26.11
51460;BME280;37534;39.772;2.718;2022-10-31T11:17:38;101697.63;;;41.76;27.13
51460;BME280;37534;39.772;2.718;2022-10-31T11:22:47;101703.28;;;40.54;29.30
51460;BME280;37534;39.772;2.718;2022-10-31T11:25:31;101716.97;;;40.07;29.45
51460;BME280;37534;39.772;2.718;2022-10-31T11:28:09;101712.66;;;40.58;29.10
51460;BME280;37534;39.772;2.718;2022-10-31T11:31:15;101716.25;;;40.84;28.02
51460;BME280;37534;39.772;2.718;2022-10-31T11:33:49;101712.25;;;40.55;28.69
51460;BME280;37534;39.772;2.718;2022-10-31T11:36:19;101714.22;;;40.73;28.58
51460;BME280;37534;39.772;2.718;2022-10-31T11:38:47;101718.19;;;41.09;28.06
51460;BME280;37534;39.772;2.718;2022-10-31T11:41:18;101710.50;;;41.05;28.11
51460;BME280;37534;39.772;2.718;2022-10-31T11:43:53;101709.16;;;41.15;27.57
51460;BME280;37534;39.772;2.718;2022-10-31T11:46:41;101712.41;;;41.55;27.66
51460;BME280;37534;39.772;2.718;2022-10-31T11:51:54;101697.44;;;41.02;28.40
51460;BME280;37534;39.772;2.718;2022-10-31T11:54:36;101691.88;;;40.91;28.18
51460;BME280;37534;39.772;2.718;2022-10-31T11:57:04;101684.63;;;40.33;28.79
51460;BME280;37534;39.772;2.718;2022-10-31T11:59:31;101679.78;;;40.55;28.42
51460;BME280;37534;39.772;2.718;2022-10-31T12:01:59;101681.06;;;41.16;28.07
51460;BME280;37534;39.772;2.718;2022-10-31T12:04:46;101667.25;;;40.99;28.12
51460;BME280;37534;39.772;2.718;2022-10-31T12:07:14;101674.09;;;41.52;27.61
51460;BME280;37534;39.772;2.718;2022-10-31T12:09:40;101662.47;;;41.26;27.35
51460;BME280;37534;39.772;2.718;2022-10-31T12:12:36;101662.38;;;41.58;27.30
51460;BME280;37534;39.772;2.718;2022-10-31T12:15:32;101656.91;;;41.65;27.39
51460;BME280;37534;39.772;2.718;2022-10-31T12:18:28;101643.22;;;41.78;27.14
51460;BME280;37534;39.772;2.718;2022-10-31T12:21:04;101656.38;;;41.93;26.94
51460;BME280;37534;39.772;2.718;2022-10-31T12:31:53;101629.16;;;41.88;26.75
51460;BME280;37534;39.772;2.718;2022-10-31T12:34:45;101617.69;;;42.04;26.60
51460;BME280;37534;39.772;2.718;2022-10-31T12:37:39;101620.22;;;41.18;27.39
51460;BME280;37534;39.772;2.718;2022-10-31T12:45:53;101607.75;;;41.61;26.97
51460;BME280;37534;39.772;2.718;2022-10-31T12:54:18;101591.41;;;40.48;28.22
51460;BME280;37534;39.772;2.718;2022-10-31T13:00:02;101576.28;;;40.34;28.74
51460;BME280;37534;39.772;2.718;2022-10-31T13:02:57;101576.66;;;40.51;28.69
51460;BME280;37534;39.772;2.718;2022-10-31T13:05:37;101565.66;;;40.01;29.68
51460;BME280;37534;39.772;2.718;2022-10-31T13:10:39;101568.53;;;37.99;31.36
51460;BME280;37534;39.772;2.718;2022-10-31T13:16:24;101574.34;;;37.33;32.43
51460;BME280;37534;39.772;2.718;2022-10-31T13:18:55;101571.91;;;36.88;34.18
51460;BME280;37534;39.772;2.718;2022-10-31T13:21:33;101555.97;;;37.08;33.67
51460;BME280;37534;39.772;2.718;2022-10-31T13:24:03;101552.81;;;37.33;33.62
51460;BME280;37534;39.772;2.718;2022-10-31T13:26:38;101557.06;;;37.48;33.01
51460;BME280;37534;39.772;2.718;2022-10-31T13:29:18;101550.59;;;37.71;32.81
51460;BME280;37534;39.772;2.718;2022-10-31T13:31:45;101547.03;;;38.12;32.31
51460;BME280;37534;39.772;2.718;2022-10-31T13:34:30;101553.25;;;37.36;33.59
51460;BME280;37534;39.772;2.718;2022-10-31T13:45:21;101543.34;;;37.37;33.89
51460;BME280;37534;39.772;2.718;2022-10-31T13:48:16;101534.41;;;37.64;33.37
51460;BME280;37534;39.772;2.718;2022-10-31T13:50:54;101530.97;;;37.84;33.28
51460;BME280;37534;39.772;2.718;2022-10-31T13:53:22;101524.91;;;37.34;33.54
51460;BME280;37534;39.772;2.718;2022-10-31T13:55:50;101534.44;;;36.65;34.58
51460;BME280;37534;39.772;2.718;2022-10-31T13:58:40;101538.75;;;36.38;34.58
51460;BME280;37534;39.772;2.718;2022-10-31T14:01:19;101536.59;;;35.22;36.46
51460;BME280;37534;39.772;2.718;2022-10-31T14:04:05;101529.69;;;34.35;38.36
51460;BME280;37534;39.772;2.718;2022-10-31T14:06:41;101525.53;;;34.33;38.88
51460;BME280;37534;39.772;2.718;2022-10-31T14:09:19;101522.78;;;33.62;40.04
51460;BME280;37534;39.772;2.718;2022-10-31T14:11:47;101511.50;;;33.27;41.64
51460;BME280;37534;39.772;2.718;2022-10-31T14:14:14;101522.56;;;33.15;42.57
51460;BME280;37534;39.772;2.718;2022-10-31T14:16:43;101533.94;;;32.26;44.42
51460;BME280;37534;39.772;2.718;2022-10-31T14:19:16;101530.59;;;32.24;45.33
51460;BME280;37534;39.772;2.718;2022-10-31T14:21:45;101526.56;;;31.77;47.47
51460;BME280;37534;39.772;2.718;2022-10-31T14:24:37;101526.97;;;31.56;49.19
51460;BME280;37534;39.772;2.718;2022-10-31T14:29:49;101525.44;;;31.27;50.68
51460;BME280;37534;39.772;2.718;2022-10-31T14:32:25;101521.81;;;30.28;54.76
51460;BME280;37534;39.772;2.718;2022-10-31T14:34:56;101513.13;;;30.90;53.72
51460;BME280;37534;39.772;2.718;2022-10-31T14:43:34;101517.31;;;30.75;53.55